createdAt,value
2022-12-25T00:00:47.708Z,9.87
2022-12-25T00:03:15.866Z,9.23
2022-12-25T00:05:48.607Z,10.00
2022-12-25T00:08:21.656Z,9.23
2022-12-25T00:10:54.355Z,9.70
2022-12-25T00:13:26.848Z,9.23
2022-12-25T00:15:57.859Z,8.77
2022-12-25T00:18:28.448Z,9.50
2022-12-25T00:21:00.025Z,9.43
2022-12-25T00:23:33.582Z,8.97
2022-12-25T00:26:01.537Z,9.57
2022-12-25T00:28:34.545Z,8.53
2022-12-25T00:31:08.268Z,9.07
2022-12-25T00:33:41.031Z,8.73
2022-12-25T00:36:09.830Z,9.50
2022-12-25T00:38:43.021Z,8.60
2022-12-25T00:41:12.966Z,8.70
2022-12-25T00:43:42.953Z,9.03
2022-12-25T00:46:11.385Z,9.53
2022-12-25T00:48:39.814Z,9.27
2022-12-25T00:51:09.095Z,8.67
2022-12-25T00:53:44.150Z,8.97
2022-12-25T00:56:12.080Z,8.70
2022-12-25T00:58:51.922Z,9.43
2022-12-25T01:01:24.618Z,9.20
2022-12-25T01:03:52.714Z,8.33
2022-12-25T01:06:20.651Z,9.10
2022-12-25T01:09:11.929Z,8.63
2022-12-25T01:11:44.665Z,8.87
2022-12-25T01:14:14.858Z,8.73
2022-12-25T01:16:47.747Z,9.20
2022-12-25T01:19:21.593Z,9.17
2022-12-25T01:22:00.138Z,9.00
2022-12-25T01:24:28.261Z,9.93
2022-12-25T01:26:56.132Z,9.63
2022-12-25T01:29:28.715Z,9.47
2022-12-25T01:32:08.743Z,9.70
2022-12-25T01:34:36.957Z,9.83
2022-12-25T01:37:09.502Z,10.30
2022-12-25T01:39:42.183Z,9.70
2022-12-25T01:42:19.919Z,8.93
2022-12-25T01:44:52.899Z,8.90
2022-12-25T01:47:21.100Z,8.53
2022-12-25T01:49:50.130Z,9.10
2022-12-25T01:52:24.492Z,8.53
2022-12-25T01:55:18.061Z,8.70
2022-12-25T01:57:51.635Z,8.80
2022-12-25T02:00:24.421Z,9.23
2022-12-25T02:02:52.601Z,7.97
2022-12-25T02:05:29.295Z,8.37
2022-12-25T02:07:57.776Z,9.83
2022-12-25T02:10:30.559Z,9.20
2022-12-25T02:12:58.368Z,9.13
2022-12-25T02:15:29.263Z,9.33
2022-12-25T02:18:23.395Z,9.50
2022-12-25T02:20:59.094Z,10.30
2022-12-25T02:23:54.251Z,9.83
2022-12-25T02:27:20.647Z,10.37
2022-12-25T02:30:11.392Z,11.73
2022-12-25T02:32:45.591Z,12.03
2022-12-25T02:35:20.777Z,12.43
2022-12-25T02:37:48.685Z,12.43
2022-12-25T02:40:32.040Z,13.87
2022-12-25T02:43:28.675Z,11.90
2022-12-25T02:46:21.914Z,10.10
2022-12-25T02:49:12.375Z,10.00
2022-12-25T02:52:05.442Z,9.80
2022-12-25T02:54:55.013Z,9.67
2022-12-25T02:57:43.049Z,9.67
2022-12-25T03:00:29.900Z,9.07
2022-12-25T03:03:16.327Z,9.23
2022-12-25T03:06:02.756Z,9.47
2022-12-25T03:08:35.260Z,10.23
2022-12-25T03:11:24.669Z,9.43
2022-12-25T03:13:55.458Z,9.60
2022-12-25T03:16:42.055Z,8.67
2022-12-25T03:19:31.606Z,10.33
2022-12-25T03:22:17.881Z,9.50
2022-12-25T03:25:04.568Z,9.67
2022-12-25T03:27:37.312Z,10.10
2022-12-25T03:30:24.130Z,10.10
2022-12-25T03:33:43.245Z,9.27
2022-12-25T03:36:19.637Z,10.23
2022-12-25T03:39:10.741Z,9.17
2022-12-25T03:42:05.380Z,10.00
2022-12-25T03:44:56.486Z,10.87
2022-12-25T03:47:50.352Z,10.60
2022-12-25T03:51:07.628Z,11.63
2022-12-25T03:54:06.607Z,11.50
2022-12-25T03:56:53.192Z,11.93
2022-12-25T03:59:41.275Z,12.23
2022-12-25T04:02:32.959Z,11.77
2022-12-25T04:05:19.793Z,12.30
2022-12-25T04:08:06.551Z,11.83
2022-12-25T04:11:07.068Z,12.13
2022-12-25T04:13:53.579Z,12.70
2022-12-25T04:16:40.098Z,12.60
2022-12-25T04:19:26.700Z,12.17
2022-12-25T04:22:12.969Z,12.63
2022-12-25T04:25:04.238Z,11.73
2022-12-25T04:27:50.650Z,12.57
2022-12-25T04:30:36.888Z,11.77
2022-12-25T04:33:23.389Z,12.30
2022-12-25T04:36:09.942Z,13.57
2022-12-25T04:38:43.474Z,12.93
2022-12-25T04:41:12.243Z,12.50
2022-12-25T04:43:44.910Z,13.00
2022-12-25T04:46:15.597Z,14.60
2022-12-25T04:48:55.139Z,13.67
2022-12-25T04:51:26.873Z,13.27
2022-12-25T04:53:54.990Z,13.03
2022-12-25T04:56:23.035Z,13.53
2022-12-25T04:58:50.929Z,13.53
2022-12-25T05:01:19.020Z,12.37
2022-12-25T05:03:46.974Z,13.87
2022-12-25T05:06:15.406Z,12.87
2022-12-25T05:08:43.468Z,13.80
2022-12-25T05:11:12.874Z,13.70
2022-12-25T05:13:45.738Z,14.30
2022-12-25T05:16:21.444Z,14.73
2022-12-25T05:18:50.417Z,12.80
2022-12-25T05:21:18.623Z,14.50
2022-12-25T05:23:52.469Z,14.13
2022-12-25T05:26:24.445Z,14.60
2022-12-25T05:28:52.398Z,14.87
2022-12-25T05:31:24.921Z,14.80
2022-12-25T05:33:53.563Z,14.97
2022-12-25T05:36:21.650Z,15.00
2022-12-25T05:38:54.371Z,14.77
2022-12-25T05:41:27.898Z,15.20
2022-12-25T05:44:14.410Z,15.10
2022-12-25T05:46:42.490Z,14.23
2022-12-25T05:49:10.349Z,14.30
2022-12-25T05:51:38.174Z,14.53
2022-12-25T05:54:13.007Z,15.80
2022-12-25T05:56:43.802Z,17.03
2022-12-25T05:59:16.495Z,16.50
2022-12-25T06:01:49.226Z,15.13
2022-12-25T06:04:17.424Z,15.07
2022-12-25T06:06:45.587Z,14.73
2022-12-25T06:09:16.145Z,15.17
2022-12-25T06:11:49.068Z,15.37
2022-12-25T06:14:21.842Z,14.73
2022-12-25T06:17:02.036Z,16.10
2022-12-25T06:19:41.949Z,15.40
2022-12-25T06:22:12.772Z,14.23
2022-12-25T06:24:45.535Z,13.50
2022-12-25T06:27:18.357Z,14.87
2022-12-25T06:29:46.254Z,13.43
2022-12-25T06:32:14.298Z,13.43
2022-12-25T06:34:42.167Z,13.73
2022-12-25T06:37:14.936Z,13.70
2022-12-25T06:39:47.946Z,14.03
2022-12-25T06:42:15.824Z,14.30
2022-12-25T06:44:48.328Z,15.17
2022-12-25T06:47:16.139Z,14.27
2022-12-25T06:49:44.073Z,14.00
2022-12-25T06:52:11.933Z,13.73
2022-12-25T06:54:39.967Z,14.90
2022-12-25T06:57:07.962Z,14.63
2022-12-25T06:59:35.869Z,14.60
2022-12-25T07:02:04.224Z,15.57
2022-12-25T07:04:36.733Z,16.20
2022-12-25T07:07:09.022Z,15.23
2022-12-25T07:09:43.549Z,14.93
2022-12-25T07:12:18.383Z,14.23
2022-12-25T07:14:51.143Z,15.60
2022-12-25T07:17:19.383Z,16.87
2022-12-25T07:19:47.873Z,14.73
2022-12-25T07:22:20.436Z,15.17
2022-12-25T07:24:48.334Z,14.70
2022-12-25T07:27:16.334Z,14.70
2022-12-25T07:29:44.336Z,14.40
2022-12-25T07:32:16.987Z,13.83
2022-12-25T07:34:50.019Z,14.40
2022-12-25T07:37:18.121Z,14.23
2022-12-25T07:39:46.044Z,13.93
2022-12-25T07:42:26.436Z,13.57
2022-12-25T07:44:57.605Z,13.37
2022-12-25T07:47:25.633Z,12.77
2022-12-25T07:49:58.107Z,12.20
2022-12-25T07:52:28.723Z,12.37
2022-12-25T07:55:01.309Z,12.50
2022-12-25T07:57:33.905Z,11.37
2022-12-25T08:00:01.791Z,11.70
2022-12-25T08:02:34.792Z,11.93
2022-12-25T08:05:06.072Z,11.77
2022-12-25T08:07:38.889Z,11.67
2022-12-25T08:10:09.854Z,10.77
2022-12-25T08:12:43.586Z,9.97
2022-12-25T08:15:11.867Z,11.03
2022-12-25T08:17:44.463Z,10.33
2022-12-25T08:20:12.662Z,10.30
2022-12-25T08:22:45.216Z,9.07
2022-12-25T08:25:17.911Z,9.83
2022-12-25T08:27:45.929Z,10.77
2022-12-25T08:30:14.321Z,10.57
2022-12-25T08:32:42.720Z,10.57
2022-12-25T08:35:15.382Z,10.00
2022-12-25T08:37:43.510Z,9.20
2022-12-25T08:40:16.415Z,9.27
2022-12-25T08:42:51.648Z,9.17
2022-12-25T08:45:19.749Z,8.93
2022-12-25T08:47:47.890Z,9.30
2022-12-25T08:50:15.850Z,9.30
2022-12-25T08:52:44.072Z,9.10
2022-12-25T08:55:16.961Z,7.83
2022-12-25T08:57:50.144Z,8.07
2022-12-25T09:00:23.019Z,7.70
2022-12-25T09:02:54.279Z,7.67
2022-12-25T09:05:22.269Z,7.33
2022-12-25T09:07:55.137Z,7.90
2022-12-25T09:10:25.758Z,7.67
2022-12-25T09:12:58.661Z,7.23
2022-12-25T09:15:39.235Z,7.13
2022-12-25T09:18:20.133Z,7.43
2022-12-25T09:20:47.949Z,4.03
2022-12-25T09:23:15.723Z,7.23
2022-12-25T09:25:43.539Z,7.47
2022-12-25T09:28:11.311Z,6.80
2022-12-25T09:30:39.206Z,6.10
2022-12-25T09:33:11.686Z,5.97
2022-12-25T09:35:39.767Z,6.53
2022-12-25T09:38:12.666Z,7.23
2022-12-25T09:40:45.143Z,5.73
2022-12-25T09:43:13.725Z,6.13
2022-12-25T09:45:46.324Z,6.10
2022-12-25T09:48:19.178Z,6.07
2022-12-25T09:50:57.436Z,5.70
2022-12-25T09:54:05.624Z,6.37
2022-12-25T09:56:38.303Z,6.77
2022-12-25T09:59:10.052Z,7.40
2022-12-25T10:02:11.579Z,6.00
2022-12-25T10:05:22.856Z,5.10
2022-12-25T10:07:56.580Z,6.10
2022-12-25T10:10:33.570Z,6.43
2022-12-25T10:13:07.573Z,6.77
2022-12-25T10:16:31.114Z,6.67
2022-12-25T10:19:29.810Z,6.40
2022-12-25T10:22:13.045Z,6.00
2022-12-25T10:25:08.295Z,6.03
2022-12-25T10:27:40.079Z,5.93
2022-12-25T10:30:18.205Z,5.53
2022-12-25T10:32:46.307Z,5.77
2022-12-25T10:35:15.498Z,5.87
2022-12-25T10:37:43.842Z,5.67
2022-12-25T10:40:30.126Z,4.77
2022-12-25T10:43:02.696Z,4.77
2022-12-25T10:45:30.645Z,5.17
2022-12-25T10:48:08.283Z,4.37
2022-12-25T10:50:36.075Z,4.47
2022-12-25T10:53:06.371Z,4.77
2022-12-25T10:55:34.431Z,5.03
2022-12-25T10:58:03.372Z,4.63
2022-12-25T11:00:32.458Z,3.90
2022-12-25T11:03:00.867Z,4.13
2022-12-25T11:05:30.096Z,4.13
2022-12-25T11:07:58.211Z,3.80
2022-12-25T11:10:45.186Z,3.90
2022-12-25T11:13:21.794Z,3.37
2022-12-25T11:15:50.436Z,3.77
2022-12-25T11:18:25.796Z,3.60
2022-12-25T11:20:59.509Z,3.40
2022-12-25T11:23:29.433Z,3.63
2022-12-25T11:26:07.454Z,3.50
2022-12-25T11:28:40.369Z,3.23
2022-12-25T11:31:34.906Z,3.50
2022-12-25T11:34:19.536Z,3.60
2022-12-25T11:36:49.847Z,3.17
2022-12-25T11:39:29.814Z,3.47
2022-12-25T11:42:15.241Z,2.73
2022-12-25T11:45:00.235Z,3.40
2022-12-25T11:47:57.661Z,3.50
2022-12-25T11:51:10.872Z,3.20
2022-12-25T11:53:48.199Z,3.30
2022-12-25T11:56:21.083Z,3.13
2022-12-25T11:58:57.114Z,3.37
2022-12-25T12:01:43.193Z,3.40
2022-12-25T12:04:29.619Z,3.20
2022-12-25T12:07:38.448Z,2.93
2022-12-25T12:10:22.923Z,2.87
2022-12-25T12:13:12.614Z,3.20
2022-12-25T12:15:45.447Z,3.03
2022-12-25T12:18:23.697Z,2.70
2022-12-25T12:21:06.304Z,2.90
2022-12-25T12:23:55.710Z,2.60
2022-12-25T12:26:30.988Z,2.83
2022-12-25T12:29:00.776Z,2.97
2022-12-25T12:31:46.815Z,3.20
2022-12-25T12:34:40.025Z,3.30
2022-12-25T12:37:24.672Z,2.67
2022-12-25T12:39:54.925Z,2.70
2022-12-25T12:42:32.252Z,3.63
2022-12-25T12:45:10.084Z,3.40
2022-12-25T12:47:46.001Z,2.90
2022-12-25T12:50:32.691Z,2.67
2022-12-25T12:53:01.410Z,3.07
2022-12-25T12:55:36.126Z,2.77
2022-12-25T12:58:05.564Z,2.90
2022-12-25T13:00:50.375Z,2.87
2022-12-25T13:04:00.042Z,2.40
2022-12-25T13:06:47.743Z,3.13
2022-12-25T13:09:57.124Z,2.70
2022-12-25T13:12:25.203Z,2.70
2022-12-25T13:14:53.309Z,2.70
2022-12-25T13:17:25.621Z,2.67
2022-12-25T13:19:56.918Z,2.77
2022-12-25T13:22:35.682Z,2.87
2022-12-25T13:25:06.469Z,2.83
2022-12-25T13:27:34.837Z,2.97
2022-12-25T13:30:15.928Z,2.67
2022-12-25T13:32:44.242Z,2.87
2022-12-25T13:35:16.580Z,2.77
2022-12-25T13:37:45.087Z,2.77
2022-12-25T13:40:27.199Z,3.07
2022-12-25T13:43:00.934Z,2.80
2022-12-25T13:45:30.980Z,2.83
2022-12-25T13:47:59.560Z,3.10
2022-12-25T13:50:28.531Z,3.50
2022-12-25T13:52:58.228Z,3.57
2022-12-25T13:55:29.840Z,4.10
2022-12-25T13:58:01.585Z,3.57
2022-12-25T14:00:37.783Z,3.20
2022-12-25T14:03:06.689Z,3.83
2022-12-25T14:05:42.909Z,4.13
2022-12-25T14:08:20.835Z,3.60
2022-12-25T14:10:50.909Z,4.07
2022-12-25T14:13:19.661Z,4.40
2022-12-25T14:15:49.136Z,3.97
2022-12-25T14:18:18.099Z,4.07
2022-12-25T14:21:23.752Z,3.97
2022-12-25T14:23:51.833Z,3.97
2022-12-25T14:26:30.681Z,4.20
2022-12-25T14:29:17.130Z,4.03
2022-12-25T14:31:47.324Z,4.17
2022-12-25T14:34:20.745Z,3.90
2022-12-25T14:36:48.788Z,3.63
2022-12-25T14:39:33.852Z,3.17
2022-12-25T14:42:01.914Z,3.70
2022-12-25T14:44:39.850Z,3.80
2022-12-25T14:47:28.012Z,3.63
2022-12-25T14:49:56.097Z,4.10
2022-12-25T14:52:34.154Z,5.20
2022-12-25T14:55:03.406Z,4.53
2022-12-25T14:57:38.354Z,4.33
2022-12-25T15:00:28.649Z,3.90
2022-12-25T15:02:57.706Z,3.90
2022-12-25T15:05:30.248Z,3.73
2022-12-25T15:08:19.947Z,3.60
2022-12-25T15:11:03.933Z,3.67
2022-12-25T15:13:32.607Z,3.47
2022-12-25T15:16:05.412Z,3.30
2022-12-25T15:18:41.432Z,3.40
2022-12-25T15:21:21.828Z,4.03
2022-12-25T15:23:49.933Z,3.80
2022-12-25T15:26:18.060Z,4.50
2022-12-25T15:28:46.043Z,3.77
2022-12-25T15:31:23.623Z,3.53
2022-12-25T15:33:52.003Z,4.23
2022-12-25T15:36:20.107Z,4.23
2022-12-25T15:38:48.251Z,4.30
2022-12-25T15:41:36.393Z,3.97
2022-12-25T15:44:04.980Z,4.80
2022-12-25T15:46:32.992Z,4.30
2022-12-25T15:49:01.350Z,4.50
2022-12-25T15:51:29.423Z,5.33
2022-12-25T15:53:57.344Z,4.73
2022-12-25T15:56:25.447Z,4.57
2022-12-25T15:58:53.437Z,5.13
2022-12-25T16:01:21.804Z,5.20
2022-12-25T16:03:50.653Z,4.27
2022-12-25T16:06:19.519Z,4.50
2022-12-25T16:08:47.476Z,5.37
2022-12-25T16:11:15.444Z,5.03
2022-12-25T16:13:43.429Z,5.03
2022-12-25T16:16:12.033Z,4.80
2022-12-25T16:18:47.767Z,3.90
2022-12-25T16:21:17.811Z,4.20
2022-12-25T16:23:45.785Z,4.63
2022-12-25T16:26:13.917Z,4.47
2022-12-25T16:28:42.029Z,4.43
2022-12-25T16:31:10.420Z,5.00
2022-12-25T16:33:38.467Z,4.90
2022-12-25T16:36:06.755Z,5.60
2022-12-25T16:38:35.391Z,5.30
2022-12-25T16:41:03.808Z,5.17
2022-12-25T16:43:31.810Z,4.80
2022-12-25T16:46:00.652Z,5.20
2022-12-25T16:48:28.728Z,4.83
2022-12-25T16:50:56.869Z,5.10
2022-12-25T16:53:24.892Z,5.67
2022-12-25T16:55:52.915Z,6.07
2022-12-25T16:58:20.833Z,5.90
2022-12-25T17:00:49.771Z,8.53
2022-12-25T17:03:17.989Z,7.83
2022-12-25T17:05:46.054Z,6.90
2022-12-25T17:08:14.197Z,6.73
2022-12-25T17:10:42.097Z,6.80
2022-12-25T17:13:10.074Z,6.30
2022-12-25T17:15:38.262Z,7.80
2022-12-25T17:18:06.694Z,6.90
2022-12-25T17:20:34.629Z,7.13
2022-12-25T17:23:02.765Z,7.97
2022-12-25T17:25:30.833Z,7.90
2022-12-25T17:27:58.726Z,7.67
2022-12-25T17:30:26.633Z,7.10
2022-12-25T17:32:56.557Z,7.73
2022-12-25T17:35:25.773Z,7.80
2022-12-25T17:37:54.056Z,7.30
2022-12-25T17:40:24.080Z,8.00
2022-12-25T17:42:54.337Z,7.20
2022-12-25T17:45:22.594Z,8.03
2022-12-25T17:47:50.754Z,8.20
2022-12-25T17:50:18.847Z,8.40
2022-12-25T17:52:47.112Z,7.80
2022-12-25T17:55:15.833Z,8.43
2022-12-25T17:57:43.974Z,7.93
2022-12-25T18:00:12.582Z,8.10
2022-12-25T18:02:41.585Z,8.67
2022-12-25T18:05:10.081Z,7.83
2022-12-25T18:07:38.110Z,8.90
2022-12-25T18:10:06.712Z,9.47
2022-12-25T18:12:34.906Z,9.43
2022-12-25T18:15:03.106Z,8.67
2022-12-25T18:17:31.276Z,8.77
2022-12-25T18:19:59.534Z,9.93
2022-12-25T18:22:27.788Z,9.23
2022-12-25T18:24:55.817Z,9.33
2022-12-25T18:27:24.374Z,10.87
2022-12-25T18:29:52.706Z,9.63
2022-12-25T18:32:26.312Z,9.93
2022-12-25T18:34:56.696Z,9.53
2022-12-25T18:37:25.108Z,9.97
2022-12-25T18:39:53.349Z,9.30
2022-12-25T18:42:40.020Z,9.87
2022-12-25T18:45:09.829Z,9.30
2022-12-25T18:47:37.782Z,8.80
2022-12-25T18:50:07.456Z,8.27
2022-12-25T18:52:48.670Z,8.50
2022-12-25T18:55:24.831Z,8.40
2022-12-25T18:57:53.152Z,9.20
2022-12-25T19:00:21.450Z,8.80
2022-12-25T19:02:49.784Z,9.57
2022-12-25T19:05:18.056Z,8.60
2022-12-25T19:07:46.066Z,7.27
2022-12-25T19:10:14.557Z,7.87
2022-12-25T19:12:42.654Z,6.33
2022-12-25T19:15:15.908Z,6.63
2022-12-25T19:17:43.887Z,6.77
2022-12-25T19:20:12.703Z,6.37
2022-12-25T19:22:40.669Z,6.33
2022-12-25T19:25:09.255Z,7.17
2022-12-25T19:27:37.733Z,6.73
2022-12-25T19:30:06.708Z,6.23
2022-12-25T19:32:34.529Z,5.73
2022-12-25T19:35:05.577Z,5.47
2022-12-25T19:37:38.914Z,5.47
2022-12-25T19:40:07.303Z,5.33
2022-12-25T19:42:35.399Z,5.43
2022-12-25T19:45:04.414Z,5.27
2022-12-25T19:47:33.528Z,5.37
2022-12-25T19:50:06.330Z,4.97
2022-12-25T19:52:34.270Z,5.27
2022-12-25T19:55:07.278Z,5.20
2022-12-25T19:57:35.440Z,6.17
2022-12-25T20:00:03.668Z,5.97
2022-12-25T20:02:31.995Z,5.70
2022-12-25T20:05:00.133Z,5.93
2022-12-25T20:07:33.281Z,6.70
2022-12-25T20:10:04.891Z,6.27
2022-12-25T20:12:37.969Z,5.47
2022-12-25T20:15:08.655Z,6.67
2022-12-25T20:17:41.860Z,5.90
2022-12-25T20:20:17.794Z,5.70
2022-12-25T20:22:46.377Z,5.30
2022-12-25T20:25:19.639Z,5.43
2022-12-25T20:27:52.806Z,5.40
2022-12-25T20:30:26.311Z,5.73
2022-12-25T20:33:05.595Z,5.53
2022-12-25T20:35:42.032Z,5.30
2022-12-25T20:38:16.160Z,5.47
2022-12-25T20:41:25.038Z,5.00
2022-12-25T20:43:45.478Z,5.17
2022-12-25T20:46:30.143Z,4.83
2022-12-25T20:49:07.508Z,4.80
2022-12-25T20:51:44.418Z,5.17
2022-12-25T20:54:14.205Z,4.70
2022-12-25T20:56:47.564Z,5.17
2022-12-25T20:59:17.231Z,5.17
2022-12-25T21:01:46.173Z,5.20
2022-12-25T21:04:19.472Z,5.87
2022-12-25T21:07:02.361Z,5.20
2022-12-25T21:09:33.438Z,6.03
2022-12-25T21:12:16.151Z,5.80
2022-12-25T21:14:49.341Z,5.40
2022-12-25T21:17:18.757Z,6.20
2022-12-25T21:19:52.300Z,5.90
2022-12-25T21:22:25.577Z,6.50
2022-12-25T21:25:04.663Z,6.20
2022-12-25T21:27:37.858Z,6.27
2022-12-25T21:30:35.088Z,6.30
2022-12-25T21:33:26.616Z,6.50
2022-12-25T21:35:59.910Z,6.57
2022-12-25T21:38:36.263Z,6.87
2022-12-25T21:41:13.217Z,7.10
2022-12-25T21:43:43.681Z,6.77
2022-12-25T21:46:13.754Z,7.07
2022-12-25T21:48:56.971Z,6.90
2022-12-25T21:51:45.587Z,6.57
2022-12-25T21:54:20.648Z,6.80
2022-12-25T21:56:54.341Z,6.33
2022-12-25T21:59:23.107Z,7.27
2022-12-25T22:02:07.568Z,7.37
2022-12-25T22:04:36.481Z,7.50
2022-12-25T22:07:20.549Z,8.03
2022-12-25T22:10:14.415Z,6.93
2022-12-25T22:13:01.464Z,6.83
2022-12-25T22:15:51.423Z,7.70
2022-12-25T22:18:49.449Z,6.80
2022-12-25T22:21:21.803Z,6.77
2022-12-25T22:24:09.524Z,6.77
2022-12-25T22:26:58.950Z,6.93
2022-12-25T22:29:32.587Z,7.00
2022-12-25T22:32:06.210Z,6.57
2022-12-25T22:34:35.102Z,7.20
2022-12-25T22:37:04.285Z,7.60
2022-12-25T22:39:38.439Z,7.30
2022-12-25T22:42:12.472Z,5.67
2022-12-25T22:44:47.417Z,7.00
2022-12-25T22:47:28.159Z,6.53
2022-12-25T22:50:02.215Z,6.80
2022-12-25T22:52:36.335Z,6.67
2022-12-25T22:55:17.136Z,6.80
2022-12-25T22:57:49.769Z,6.93
2022-12-25T23:00:49.260Z,6.43
2022-12-25T23:03:21.697Z,5.90
2022-12-25T23:06:05.966Z,6.13
2022-12-25T23:08:35.870Z,6.47
2022-12-25T23:11:04.942Z,6.10
2022-12-25T23:13:57.411Z,6.00
2022-12-25T23:16:30.899Z,6.70
2022-12-25T23:19:25.308Z,6.80
2022-12-25T23:22:30.953Z,7.37
2022-12-25T23:25:17.399Z,6.47
2022-12-25T23:27:49.560Z,6.47
2022-12-25T23:30:32.735Z,6.43
2022-12-25T23:33:12.702Z,6.50
2022-12-25T23:35:43.872Z,6.10
2022-12-25T23:38:16.948Z,5.83
2022-12-25T23:40:50.640Z,6.60
2022-12-25T23:43:23.684Z,5.90
2022-12-25T23:45:52.020Z,6.33
2022-12-25T23:48:28.613Z,6.23
2022-12-25T23:51:11.400Z,5.93
2022-12-25T23:53:50.041Z,5.17
2022-12-25T23:56:26.240Z,5.30
2022-12-25T23:58:57.036Z,5.07
